sensor_id;sensor_type;location;lat;lon;timestamp;temperature;humidity
11221;DHT22;8517;53.546;10.104;2022-07-23T00:01:00;20.00;99.90
11221;DHT22;8517;53.546;10.104;2022-07-23T00:03:27;20.00;99.90
11221;DHT22;8517;53.546;10.104;2022-07-23T00:05:54;19.90;99.90
11221;DHT22;8517;53.546;10.104;2022-07-23T00:08:21;20.00;99.90
11221;DHT22;8517;53.546;10.104;2022-07-23T00:10:47;20.00;99.90
11221;DHT22;8517;53.546;10.104;2022-07-23T00:13:14;19.90;99.90
11221;DHT22;8517;53.546;10.104;2022-07-23T00:15:41;19.90;99.90
11221;DHT22;8517;53.546;10.104;2022-07-23T00:18:09;19.90;99.90
11221;DHT22;8517;53.546;10.104;2022-07-23T00:20:36;19.90;99.90
11221;DHT22;8517;53.546;10.104;2022-07-23T00:23:02;19.90;99.90
11221;DHT22;8517;53.546;10.104;2022-07-23T00:25:29;19.90;99.90
11221;DHT22;8517;53.546;10.104;2022-07-23T00:27:56;19.90;99.90
11221;DHT22;8517;53.546;10.104;2022-07-23T00:30:23;19.80;99.90
11221;DHT22;8517;53.546;10.104;2022-07-23T00:32:52;19.80;99.90
11221;DHT22;8517;53.546;10.104;2022-07-23T00:35:21;19.90;99.90
11221;DHT22;8517;53.546;10.104;2022-07-23T00:37:48;19.80;99.90
11221;DHT22;8517;53.546;10.104;2022-07-23T00:40:15;19.80;99.90
11221;DHT22;8517;53.546;10.104;2022-07-23T00:42:42;19.80;99.90
11221;DHT22;8517;53.546;10.104;2022-07-23T00:45:10;19.80;99.90
11221;DHT22;8517;53.546;10.104;2022-07-23T00:47:37;19.80;99.90
11221;DHT22;8517;53.546;10.104;2022-07-23T00:50:05;19.80;99.90
11221;DHT22;8517;53.546;10.104;2022-07-23T00:52:35;19.80;99.90
11221;DHT22;8517;53.546;10.104;2022-07-23T00:55:03;19.80;99.90
11221;DHT22;8517;53.546;10.104;2022-07-23T00:57:30;19.80;99.90
11221;DHT22;8517;53.546;10.104;2022-07-23T00:59:57;19.80;99.90
11221;DHT22;8517;53.546;10.104;2022-07-23T01:02:24;19.80;99.90
11221;DHT22;8517;53.546;10.104;2022-07-23T01:04:51;19.80;99.90
11221;DHT22;8517;53.546;10.104;2022-07-23T01:07:18;19.70;99.90
11221;DHT22;8517;53.546;10.104;2022-07-23T01:09:47;19.80;99.90
11221;DHT22;8517;53.546;10.104;2022-07-23T01:12:13;19.70;99.90
11221;DHT22;8517;53.546;10.104;2022-07-23T01:14:42;19.70;99.90
11221;DHT22;8517;53.546;10.104;2022-07-23T01:17:09;19.60;99.90
11221;DHT22;8517;53.546;10.104;2022-07-23T01:19:36;19.60;99.90
11221;DHT22;8517;53.546;10.104;2022-07-23T01:22:03;19.60;99.90
11221;DHT22;8517;53.546;10.104;2022-07-23T01:24:32;19.60;99.90
11221;DHT22;8517;53.546;10.104;2022-07-23T01:26:59;19.50;99.90
11221;DHT22;8517;53.546;10.104;2022-07-23T01:29:25;19.50;99.90
11221;DHT22;8517;53.546;10.104;2022-07-23T01:31:52;19.50;99.90
11221;DHT22;8517;53.546;10.104;2022-07-23T01:34:19;19.50;99.90
11221;DHT22;8517;53.546;10.104;2022-07-23T01:37:04;19.40;99.90
11221;DHT22;8517;53.546;10.104;2022-07-23T01:39:32;19.40;99.90
11221;DHT22;8517;53.546;10.104;2022-07-23T01:41:59;19.40;99.90
11221;DHT22;8517;53.546;10.104;2022-07-23T01:44:26;19.40;99.90
11221;DHT22;8517;53.546;10.104;2022-07-23T01:46:53;19.40;99.90
11221;DHT22;8517;53.546;10.104;2022-07-23T01:49:19;19.40;99.90
11221;DHT22;8517;53.546;10.104;2022-07-23T01:51:46;19.40;99.90
11221;DHT22;8517;53.546;10.104;2022-07-23T01:54:26;19.40;99.90
11221;DHT22;8517;53.546;10.104;2022-07-23T01:56:54;19.40;99.90
11221;DHT22;8517;53.546;10.104;2022-07-23T01:59:21;19.40;99.90
11221;DHT22;8517;53.546;10.104;2022-07-23T02:01:48;19.40;99.90
11221;DHT22;8517;53.546;10.104;2022-07-23T02:04:16;19.40;99.90
11221;DHT22;8517;53.546;10.104;2022-07-23T02:06:42;19.40;99.90
11221;DHT22;8517;53.546;10.104;2022-07-23T02:09:18;19.40;99.90
11221;DHT22;8517;53.546;10.104;2022-07-23T02:11:45;19.40;99.90
11221;DHT22;8517;53.546;10.104;2022-07-23T02:14:13;19.40;99.90
11221;DHT22;8517;53.546;10.104;2022-07-23T02:16:40;19.40;99.90
11221;DHT22;8517;53.546;10.104;2022-07-23T02:19:07;19.40;99.90
11221;DHT22;8517;53.546;10.104;2022-07-23T02:21:33;19.40;99.90
11221;DHT22;8517;53.546;10.104;2022-07-23T02:24:01;19.40;99.90
11221;DHT22;8517;53.546;10.104;2022-07-23T02:26:27;19.40;99.90
11221;DHT22;8517;53.546;10.104;2022-07-23T02:28:54;19.40;99.90
11221;DHT22;8517;53.546;10.104;2022-07-23T02:31:22;19.40;99.90
11221;DHT22;8517;53.546;10.104;2022-07-23T02:33:49;19.40;99.90
11221;DHT22;8517;53.546;10.104;2022-07-23T02:36:16;19.40;99.90
11221;DHT22;8517;53.546;10.104;2022-07-23T02:38:42;19.40;99.90
11221;DHT22;8517;53.546;10.104;2022-07-23T02:41:09;19.40;99.90
11221;DHT22;8517;53.546;10.104;2022-07-23T02:43:36;19.40;99.90
11221;DHT22;8517;53.546;10.104;2022-07-23T02:46:03;19.40;99.90
11221;DHT22;8517;53.546;10.104;2022-07-23T02:48:31;19.30;99.90
11221;DHT22;8517;53.546;10.104;2022-07-23T02:50:58;19.40;99.90
11221;DHT22;8517;53.546;10.104;2022-07-23T02:53:25;19.30;99.90
11221;DHT22;8517;53.546;10.104;2022-07-23T02:55:51;19.30;99.90
11221;DHT22;8517;53.546;10.104;2022-07-23T02:58:18;19.30;99.90
11221;DHT22;8517;53.546;10.104;2022-07-23T03:00:45;19.20;99.90
11221;DHT22;8517;53.546;10.104;2022-07-23T03:03:12;19.20;99.90
11221;DHT22;8517;53.546;10.104;2022-07-23T03:05:40;19.10;99.90
11221;DHT22;8517;53.546;10.104;2022-07-23T03:08:07;19.10;99.90
11221;DHT22;8517;53.546;10.104;2022-07-23T03:10:33;19.10;99.90
11221;DHT22;8517;53.546;10.104;2022-07-23T03:13:00;19.10;99.90
11221;DHT22;8517;53.546;10.104;2022-07-23T03:15:27;19.00;99.90
11221;DHT22;8517;53.546;10.104;2022-07-23T03:17:54;19.00;99.90
11221;DHT22;8517;53.546;10.104;2022-07-23T03:20:21;18.90;99.90
11221;DHT22;8517;53.546;10.104;2022-07-23T03:22:49;19.00;99.90
11221;DHT22;8517;53.546;10.104;2022-07-23T03:25:15;18.90;99.90
11221;DHT22;8517;53.546;10.104;2022-07-23T03:27:42;18.90;99.90
11221;DHT22;8517;53.546;10.104;2022-07-23T03:30:11;18.80;99.90
11221;DHT22;8517;53.546;10.104;2022-07-23T03:32:38;18.90;99.90
11221;DHT22;8517;53.546;10.104;2022-07-23T03:35:05;18.80;99.90
11221;DHT22;8517;53.546;10.104;2022-07-23T03:37:32;18.80;99.90
11221;DHT22;8517;53.546;10.104;2022-07-23T03:40:00;18.80;99.90
11221;DHT22;8517;53.546;10.104;2022-07-23T03:42:27;18.80;99.90
11221;DHT22;8517;53.546;10.104;2022-07-23T03:44:54;18.80;99.90
11221;DHT22;8517;53.546;10.104;2022-07-23T03:47:21;18.80;99.90
11221;DHT22;8517;53.546;10.104;2022-07-23T03:49:48;18.80;99.90
11221;DHT22;8517;53.546;10.104;2022-07-23T03:52:15;18.80;99.90
11221;DHT22;8517;53.546;10.104;2022-07-23T03:54:41;18.80;99.90
11221;DHT22;8517;53.546;10.104;2022-07-23T03:57:09;18.80;99.90
11221;DHT22;8517;53.546;10.104;2022-07-23T03:59:51;18.80;99.90
11221;DHT22;8517;53.546;10.104;2022-07-23T04:02:18;18.80;99.90
11221;DHT22;8517;53.546;10.104;2022-07-23T04:04:45;18.90;99.90
11221;DHT22;8517;53.546;10.104;2022-07-23T04:07:13;18.90;99.90
11221;DHT22;8517;53.546;10.104;2022-07-23T04:09:40;18.90;99.90
11221;DHT22;8517;53.546;10.104;2022-07-23T04:12:07;18.80;99.90
11221;DHT22;8517;53.546;10.104;2022-07-23T04:14:51;18.90;99.90
11221;DHT22;8517;53.546;10.104;2022-07-23T04:17:17;18.90;99.90
11221;DHT22;8517;53.546;10.104;2022-07-23T04:22:57;18.90;99.90
11221;DHT22;8517;53.546;10.104;2022-07-23T04:25:24;19.00;99.90
11221;DHT22;8517;53.546;10.104;2022-07-23T04:27:51;19.00;99.90
11221;DHT22;8517;53.546;10.104;2022-07-23T04:30:19;19.10;99.90
11221;DHT22;8517;53.546;10.104;2022-07-23T04:32:46;19.20;99.90
11221;DHT22;8517;53.546;10.104;2022-07-23T04:35:12;19.20;99.90
11221;DHT22;8517;53.546;10.104;2022-07-23T04:37:39;19.20;99.90
11221;DHT22;8517;53.546;10.104;2022-07-23T04:40:06;19.30;99.90
11221;DHT22;8517;53.546;10.104;2022-07-23T04:42:33;19.30;99.90
11221;DHT22;8517;53.546;10.104;2022-07-23T04:45:00;19.30;99.90
11221;DHT22;8517;53.546;10.104;2022-07-23T04:47:28;19.30;99.90
11221;DHT22;8517;53.546;10.104;2022-07-23T04:49:56;19.30;99.90
11221;DHT22;8517;53.546;10.104;2022-07-23T04:52:23;19.30;99.90
11221;DHT22;8517;53.546;10.104;2022-07-23T04:54:50;19.30;99.90
11221;DHT22;8517;53.546;10.104;2022-07-23T04:57:16;19.20;99.90
11221;DHT22;8517;53.546;10.104;2022-07-23T04:59:43;19.30;99.90
11221;DHT22;8517;53.546;10.104;2022-07-23T05:02:10;19.30;99.90
11221;DHT22;8517;53.546;10.104;2022-07-23T05:04:38;19.20;99.90
11221;DHT22;8517;53.546;10.104;2022-07-23T05:07:05;19.20;99.90
11221;DHT22;8517;53.546;10.104;2022-07-23T05:09:31;19.20;99.90
11221;DHT22;8517;53.546;10.104;2022-07-23T05:11:59;19.10;99.90
11221;DHT22;8517;53.546;10.104;2022-07-23T05:14:26;19.10;99.90
11221;DHT22;8517;53.546;10.104;2022-07-23T05:16:53;19.10;99.90
11221;DHT22;8517;53.546;10.104;2022-07-23T05:19:20;19.10;99.90
11221;DHT22;8517;53.546;10.104;2022-07-23T05:21:48;19.10;99.90
11221;DHT22;8517;53.546;10.104;2022-07-23T05:24:15;19.10;99.90
11221;DHT22;8517;53.546;10.104;2022-07-23T05:26:41;19.10;99.90
11221;DHT22;8517;53.546;10.104;2022-07-23T05:29:08;19.10;99.90
11221;DHT22;8517;53.546;10.104;2022-07-23T05:31:35;19.10;99.90
11221;DHT22;8517;53.546;10.104;2022-07-23T05:34:01;19.10;99.90
11221;DHT22;8517;53.546;10.104;2022-07-23T05:36:28;19.10;99.90
11221;DHT22;8517;53.546;10.104;2022-07-23T05:38:56;19.10;99.90
11221;DHT22;8517;53.546;10.104;2022-07-23T05:42:04;19.00;99.90
11221;DHT22;8517;53.546;10.104;2022-07-23T05:44:52;19.10;99.90
11221;DHT22;8517;53.546;10.104;2022-07-23T05:47:19;19.10;99.90
11221;DHT22;8517;53.546;10.104;2022-07-23T05:49:46;19.20;99.90
11221;DHT22;8517;53.546;10.104;2022-07-23T05:52:12;19.20;99.90
11221;DHT22;8517;53.546;10.104;2022-07-23T05:54:40;19.20;99.90
11221;DHT22;8517;53.546;10.104;2022-07-23T05:57:07;19.30;99.90
11221;DHT22;8517;53.546;10.104;2022-07-23T05:59:34;19.30;99.90
11221;DHT22;8517;53.546;10.104;2022-07-23T06:02:01;19.30;99.90
11221;DHT22;8517;53.546;10.104;2022-07-23T06:04:27;19.30;99.90
11221;DHT22;8517;53.546;10.104;2022-07-23T06:06:54;19.30;99.90
11221;DHT22;8517;53.546;10.104;2022-07-23T06:09:21;19.30;99.90
11221;DHT22;8517;53.546;10.104;2022-07-23T06:11:49;19.30;99.90
11221;DHT22;8517;53.546;10.104;2022-07-23T06:14:16;19.40;99.90
11221;DHT22;8517;53.546;10.104;2022-07-23T06:16:42;19.40;99.90
11221;DHT22;8517;53.546;10.104;2022-07-23T06:19:09;19.40;99.90
11221;DHT22;8517;53.546;10.104;2022-07-23T06:21:36;19.40;99.90
11221;DHT22;8517;53.546;10.104;2022-07-23T06:24:03;19.40;99.90
11221;DHT22;8517;53.546;10.104;2022-07-23T06:26:30;19.50;99.90
11221;DHT22;8517;53.546;10.104;2022-07-23T06:28:58;19.50;99.90
11221;DHT22;8517;53.546;10.104;2022-07-23T06:31:24;19.60;99.90
11221;DHT22;8517;53.546;10.104;2022-07-23T06:33:51;19.70;99.90
11221;DHT22;8517;53.546;10.104;2022-07-23T06:36:18;19.70;99.90
11221;DHT22;8517;53.546;10.104;2022-07-23T06:38:45;19.90;99.90
11221;DHT22;8517;53.546;10.104;2022-07-23T06:41:11;19.90;99.90
11221;DHT22;8517;53.546;10.104;2022-07-23T06:43:38;20.10;99.90
11221;DHT22;8517;53.546;10.104;2022-07-23T06:46:06;20.30;99.90
11221;DHT22;8517;53.546;10.104;2022-07-23T06:48:33;20.40;99.90
11221;DHT22;8517;53.546;10.104;2022-07-23T06:51:01;20.60;99.90
11221;DHT22;8517;53.546;10.104;2022-07-23T06:53:28;20.60;99.90
11221;DHT22;8517;53.546;10.104;2022-07-23T06:55:54;20.60;99.90
11221;DHT22;8517;53.546;10.104;2022-07-23T06:58:21;20.60;99.90
11221;DHT22;8517;53.546;10.104;2022-07-23T07:00:48;20.50;99.90
11221;DHT22;8517;53.546;10.104;2022-07-23T07:03:17;20.50;99.90
11221;DHT22;8517;53.546;10.104;2022-07-23T07:05:44;20.40;99.90
11221;DHT22;8517;53.546;10.104;2022-07-23T07:08:11;20.40;99.90
11221;DHT22;8517;53.546;10.104;2022-07-23T07:10:38;20.30;99.90
11221;DHT22;8517;53.546;10.104;2022-07-23T07:13:05;20.30;99.90
11221;DHT22;8517;53.546;10.104;2022-07-23T07:15:31;20.30;99.90
11221;DHT22;8517;53.546;10.104;2022-07-23T07:17:58;20.30;99.90
11221;DHT22;8517;53.546;10.104;2022-07-23T07:20:26;20.20;99.90
11221;DHT22;8517;53.546;10.104;2022-07-23T07:22:53;20.30;99.90
11221;DHT22;8517;53.546;10.104;2022-07-23T07:25:20;20.30;99.90
11221;DHT22;8517;53.546;10.104;2022-07-23T07:27:46;20.30;99.90
11221;DHT22;8517;53.546;10.104;2022-07-23T07:30:16;20.30;99.90
11221;DHT22;8517;53.546;10.104;2022-07-23T07:32:43;20.40;99.90
11221;DHT22;8517;53.546;10.104;2022-07-23T07:35:10;20.40;99.90
11221;DHT22;8517;53.546;10.104;2022-07-23T07:37:38;20.40;99.90
11221;DHT22;8517;53.546;10.104;2022-07-23T07:40:05;20.50;99.90
11221;DHT22;8517;53.546;10.104;2022-07-23T07:42:32;20.70;99.90
11221;DHT22;8517;53.546;10.104;2022-07-23T07:45:00;20.70;99.90
11221;DHT22;8517;53.546;10.104;2022-07-23T07:47:27;20.70;99.90
11221;DHT22;8517;53.546;10.104;2022-07-23T07:49:53;20.70;99.90
11221;DHT22;8517;53.546;10.104;2022-07-23T07:52:21;20.60;99.90
11221;DHT22;8517;53.546;10.104;2022-07-23T07:54:49;20.50;99.90
11221;DHT22;8517;53.546;10.104;2022-07-23T07:57:16;20.40;99.90
11221;DHT22;8517;53.546;10.104;2022-07-23T07:59:43;20.40;99.90
11221;DHT22;8517;53.546;10.104;2022-07-23T08:02:09;20.30;99.90
11221;DHT22;8517;53.546;10.104;2022-07-23T08:04:36;20.40;99.90
11221;DHT22;8517;53.546;10.104;2022-07-23T08:07:03;20.40;99.90
11221;DHT22;8517;53.546;10.104;2022-07-23T08:09:29;20.60;99.90
11221;DHT22;8517;53.546;10.104;2022-07-23T08:11:58;20.80;99.90
11221;DHT22;8517;53.546;10.104;2022-07-23T08:14:24;21.00;99.90
11221;DHT22;8517;53.546;10.104;2022-07-23T08:16:51;21.20;99.90
11221;DHT22;8517;53.546;10.104;2022-07-23T08:19:18;21.40;99.90
11221;DHT22;8517;53.546;10.104;2022-07-23T08:21:45;21.60;99.90
11221;DHT22;8517;53.546;10.104;2022-07-23T08:24:11;21.60;99.90
11221;DHT22;8517;53.546;10.104;2022-07-23T08:26:38;21.70;99.90
11221;DHT22;8517;53.546;10.104;2022-07-23T08:29:06;21.70;99.90
11221;DHT22;8517;53.546;10.104;2022-07-23T08:31:33;21.70;99.90
11221;DHT22;8517;53.546;10.104;2022-07-23T08:34:00;21.70;99.90
11221;DHT22;8517;53.546;10.104;2022-07-23T08:36:28;21.70;99.90
11221;DHT22;8517;53.546;10.104;2022-07-23T08:38:57;21.60;99.90
11221;DHT22;8517;53.546;10.104;2022-07-23T08:41:24;21.50;99.90
11221;DHT22;8517;53.546;10.104;2022-07-23T08:43:51;21.40;99.90
11221;DHT22;8517;53.546;10.104;2022-07-23T08:46:20;21.10;99.90
11221;DHT22;8517;53.546;10.104;2022-07-23T08:48:49;20.90;99.90
11221;DHT22;8517;53.546;10.104;2022-07-23T08:51:17;20.70;99.90
11221;DHT22;8517;53.546;10.104;2022-07-23T08:53:44;20.50;99.90
11221;DHT22;8517;53.546;10.104;2022-07-23T08:56:11;20.30;99.90
11221;DHT22;8517;53.546;10.104;2022-07-23T08:58:38;20.20;99.90
11221;DHT22;8517;53.546;10.104;2022-07-23T09:01:05;20.10;99.90
11221;DHT22;8517;53.546;10.104;2022-07-23T09:03:35;20.10;99.90
11221;DHT22;8517;53.546;10.104;2022-07-23T09:06:03;20.00;99.90
11221;DHT22;8517;53.546;10.104;2022-07-23T09:08:36;20.10;99.90
11221;DHT22;8517;53.546;10.104;2022-07-23T09:11:04;20.10;99.90
11221;DHT22;8517;53.546;10.104;2022-07-23T09:13:36;20.20;99.90
11221;DHT22;8517;53.546;10.104;2022-07-23T09:16:06;20.30;99.90
11221;DHT22;8517;53.546;10.104;2022-07-23T09:18:47;20.40;99.90
11221;DHT22;8517;53.546;10.104;2022-07-23T09:21:20;20.50;99.90
11221;DHT22;8517;53.546;10.104;2022-07-23T09:23:51;20.60;99.90
11221;DHT22;8517;53.546;10.104;2022-07-23T09:26:20;20.70;99.90
11221;DHT22;8517;53.546;10.104;2022-07-23T09:28:51;20.80;99.90
11221;DHT22;8517;53.546;10.104;2022-07-23T09:31:19;20.90;99.90
11221;DHT22;8517;53.546;10.104;2022-07-23T09:33:47;21.00;99.90
11221;DHT22;8517;53.546;10.104;2022-07-23T09:36:14;21.10;99.90
11221;DHT22;8517;53.546;10.104;2022-07-23T09:38:48;21.20;99.90
11221;DHT22;8517;53.546;10.104;2022-07-23T09:41:16;21.40;99.90
11221;DHT22;8517;53.546;10.104;2022-07-23T09:43:43;21.50;99.90
11221;DHT22;8517;53.546;10.104;2022-07-23T09:46:20;21.60;99.90
11221;DHT22;8517;53.546;10.104;2022-07-23T09:48:50;21.70;99.90
11221;DHT22;8517;53.546;10.104;2022-07-23T09:51:18;21.80;99.90
11221;DHT22;8517;53.546;10.104;2022-07-23T09:53:47;21.90;99.90
11221;DHT22;8517;53.546;10.104;2022-07-23T09:56:14;22.00;99.90
11221;DHT22;8517;53.546;10.104;2022-07-23T09:58:41;22.10;99.90
11221;DHT22;8517;53.546;10.104;2022-07-23T10:01:15;22.20;99.90
11221;DHT22;8517;53.546;10.104;2022-07-23T10:03:42;22.20;99.90
11221;DHT22;8517;53.546;10.104;2022-07-23T10:06:12;22.20;99.90
11221;DHT22;8517;53.546;10.104;2022-07-23T10:08:40;22.20;99.90
11221;DHT22;8517;53.546;10.104;2022-07-23T10:11:08;22.30;99.90
11221;DHT22;8517;53.546;10.104;2022-07-23T10:13:36;22.20;99.90
11221;DHT22;8517;53.546;10.104;2022-07-23T10:16:18;22.10;99.90
11221;DHT22;8517;53.546;10.104;2022-07-23T10:18:45;22.10;99.90
11221;DHT22;8517;53.546;10.104;2022-07-23T10:21:21;22.10;99.90
11221;DHT22;8517;53.546;10.104;2022-07-23T10:24:04;22.00;99.90
11221;DHT22;8517;53.546;10.104;2022-07-23T10:27:04;22.00;99.90
11221;DHT22;8517;53.546;10.104;2022-07-23T10:29:45;22.00;99.90
11221;DHT22;8517;53.546;10.104;2022-07-23T10:32:20;21.90;99.90
11221;DHT22;8517;53.546;10.104;2022-07-23T10:34:55;21.80;99.90
11221;DHT22;8517;53.546;10.104;2022-07-23T10:37:30;21.70;99.90
11221;DHT22;8517;53.546;10.104;2022-07-23T10:40:12;21.70;99.90
11221;DHT22;8517;53.546;10.104;2022-07-23T10:42:40;21.70;99.90
11221;DHT22;8517;53.546;10.104;2022-07-23T10:45:28;21.70;99.90
11221;DHT22;8517;53.546;10.104;2022-07-23T10:47:56;21.80;99.90
11221;DHT22;8517;53.546;10.104;2022-07-23T10:50:37;21.90;99.90
11221;DHT22;8517;53.546;10.104;2022-07-23T10:53:14;21.90;99.90
11221;DHT22;8517;53.546;10.104;2022-07-23T10:55:45;22.00;99.90
11221;DHT22;8517;53.546;10.104;2022-07-23T10:58:21;22.10;99.90
11221;DHT22;8517;53.546;10.104;2022-07-23T11:00:48;22.20;99.90
11221;DHT22;8517;53.546;10.104;2022-07-23T11:03:29;22.40;99.90
11221;DHT22;8517;53.546;10.104;2022-07-23T11:05:57;22.50;99.90
11221;DHT22;8517;53.546;10.104;2022-07-23T11:08:26;22.70;99.90
11221;DHT22;8517;53.546;10.104;2022-07-23T11:10:55;22.80;99.90
11221;DHT22;8517;53.546;10.104;2022-07-23T11:14:23;23.00;99.90
11221;DHT22;8517;53.546;10.104;2022-07-23T11:16:49;23.20;99.90
11221;DHT22;8517;53.546;10.104;2022-07-23T11:19:21;23.30;99.90
11221;DHT22;8517;53.546;10.104;2022-07-23T11:21:49;23.30;99.90
11221;DHT22;8517;53.546;10.104;2022-07-23T11:24:19;23.30;99.90
11221;DHT22;8517;53.546;10.104;2022-07-23T11:27:01;23.30;99.90
11221;DHT22;8517;53.546;10.104;2022-07-23T11:29:48;23.20;99.90
11221;DHT22;8517;53.546;10.104;2022-07-23T11:35:22;23.10;99.90
11221;DHT22;8517;53.546;10.104;2022-07-23T11:37:51;23.00;99.90
11221;DHT22;8517;53.546;10.104;2022-07-23T11:40:25;23.00;99.90
11221;DHT22;8517;53.546;10.104;2022-07-23T11:42:55;23.10;99.90
11221;DHT22;8517;53.546;10.104;2022-07-23T11:45:23;23.10;99.90
11221;DHT22;8517;53.546;10.104;2022-07-23T11:47:51;23.10;99.90
11221;DHT22;8517;53.546;10.104;2022-07-23T11:50:18;23.20;99.90
11221;DHT22;8517;53.546;10.104;2022-07-23T11:52:44;23.20;99.90
11221;DHT22;8517;53.546;10.104;2022-07-23T11:55:11;23.20;99.90
11221;DHT22;8517;53.546;10.104;2022-07-23T11:57:43;23.10;99.90
11221;DHT22;8517;53.546;10.104;2022-07-23T12:00:11;23.10;99.90
11221;DHT22;8517;53.546;10.104;2022-07-23T12:02:39;23.00;99.90
11221;DHT22;8517;53.546;10.104;2022-07-23T12:05:07;23.00;99.90
11221;DHT22;8517;53.546;10.104;2022-07-23T12:07:37;22.90;99.90
11221;DHT22;8517;53.546;10.104;2022-07-23T12:10:09;22.90;99.90
11221;DHT22;8517;53.546;10.104;2022-07-23T12:12:37;22.80;99.90
11221;DHT22;8517;53.546;10.104;2022-07-23T12:15:07;22.80;99.90
11221;DHT22;8517;53.546;10.104;2022-07-23T12:17:35;22.70;99.90
11221;DHT22;8517;53.546;10.104;2022-07-23T12:20:04;22.60;99.90
11221;DHT22;8517;53.546;10.104;2022-07-23T12:22:37;22.50;99.90
11221;DHT22;8517;53.546;10.104;2022-07-23T12:25:06;22.40;99.90
11221;DHT22;8517;53.546;10.104;2022-07-23T12:27:34;22.30;99.90
11221;DHT22;8517;53.546;10.104;2022-07-23T12:30:22;22.20;99.90
11221;DHT22;8517;53.546;10.104;2022-07-23T12:32:51;22.20;99.90
11221;DHT22;8517;53.546;10.104;2022-07-23T12:35:18;22.20;99.90
11221;DHT22;8517;53.546;10.104;2022-07-23T12:37:47;22.20;99.90
11221;DHT22;8517;53.546;10.104;2022-07-23T12:40:28;22.30;99.90
11221;DHT22;8517;53.546;10.104;2022-07-23T12:42:58;22.30;99.90
11221;DHT22;8517;53.546;10.104;2022-07-23T12:45:28;22.40;99.90
11221;DHT22;8517;53.546;10.104;2022-07-23T12:48:01;22.40;99.90
11221;DHT22;8517;53.546;10.104;2022-07-23T12:50:38;22.40;99.90
11221;DHT22;8517;53.546;10.104;2022-07-23T12:53:06;22.30;99.90
11221;DHT22;8517;53.546;10.104;2022-07-23T12:55:34;22.30;99.90
11221;DHT22;8517;53.546;10.104;2022-07-23T12:58:05;22.30;99.90
11221;DHT22;8517;53.546;10.104;2022-07-23T13:00:49;22.30;99.90
11221;DHT22;8517;53.546;10.104;2022-07-23T13:03:24;22.30;99.90
11221;DHT22;8517;53.546;10.104;2022-07-23T13:05:51;22.40;99.90
11221;DHT22;8517;53.546;10.104;2022-07-23T13:08:18;22.50;99.90
11221;DHT22;8517;53.546;10.104;2022-07-23T13:13:35;22.50;99.90
11221;DHT22;8517;53.546;10.104;2022-07-23T13:16:03;22.60;99.90
11221;DHT22;8517;53.546;10.104;2022-07-23T13:18:30;22.60;99.90
11221;DHT22;8517;53.546;10.104;2022-07-23T13:20:58;22.60;99.90
11221;DHT22;8517;53.546;10.104;2022-07-23T13:23:25;22.60;99.90
11221;DHT22;8517;53.546;10.104;2022-07-23T13:25:52;22.60;99.90
11221;DHT22;8517;53.546;10.104;2022-07-23T13:28:20;22.60;99.90
11221;DHT22;8517;53.546;10.104;2022-07-23T13:30:48;22.70;99.90
11221;DHT22;8517;53.546;10.104;2022-07-23T13:33:20;22.70;99.90
11221;DHT22;8517;53.546;10.104;2022-07-23T13:35:47;22.70;99.90
11221;DHT22;8517;53.546;10.104;2022-07-23T13:38:15;22.70;99.90
11221;DHT22;8517;53.546;10.104;2022-07-23T13:40:45;22.80;99.90
11221;DHT22;8517;53.546;10.104;2022-07-23T13:43:13;22.80;99.90
11221;DHT22;8517;53.546;10.104;2022-07-23T13:45:41;22.90;99.90
11221;DHT22;8517;53.546;10.104;2022-07-23T13:48:10;22.90;99.90
11221;DHT22;8517;53.546;10.104;2022-07-23T13:50:40;22.90;99.90
11221;DHT22;8517;53.546;10.104;2022-07-23T13:53:09;22.90;99.90
11221;DHT22;8517;53.546;10.104;2022-07-23T13:55:36;22.90;99.90
11221;DHT22;8517;53.546;10.104;2022-07-23T13:58:03;22.90;99.90
11221;DHT22;8517;53.546;10.104;2022-07-23T14:00:47;23.00;99.90
11221;DHT22;8517;53.546;10.104;2022-07-23T14:03:21;22.90;99.90
11221;DHT22;8517;53.546;10.104;2022-07-23T14:05:51;22.90;99.90
11221;DHT22;8517;53.546;10.104;2022-07-23T14:08:18;22.90;99.90
11221;DHT22;8517;53.546;10.104;2022-07-23T14:10:45;22.80;99.90
11221;DHT22;8517;53.546;10.104;2022-07-23T14:13:12;22.80;99.90
11221;DHT22;8517;53.546;10.104;2022-07-23T14:15:38;22.80;99.90
11221;DHT22;8517;53.546;10.104;2022-07-23T14:18:06;22.70;99.90
11221;DHT22;8517;53.546;10.104;2022-07-23T14:20:32;22.80;99.90
11221;DHT22;8517;53.546;10.104;2022-07-23T14:23:00;22.80;99.90
11221;DHT22;8517;53.546;10.104;2022-07-23T14:25:28;22.70;99.90
11221;DHT22;8517;53.546;10.104;2022-07-23T14:27:54;22.70;99.90
11221;DHT22;8517;53.546;10.104;2022-07-23T14:30:21;22.70;99.90
11221;DHT22;8517;53.546;10.104;2022-07-23T14:32:49;22.70;99.90
11221;DHT22;8517;53.546;10.104;2022-07-23T14:35:16;22.70;99.90
11221;DHT22;8517;53.546;10.104;2022-07-23T14:37:44;22.70;99.90
11221;DHT22;8517;53.546;10.104;2022-07-23T14:40:12;22.70;99.90
11221;DHT22;8517;53.546;10.104;2022-07-23T14:42:39;22.70;99.90
11221;DHT22;8517;53.546;10.104;2022-07-23T14:45:06;22.80;99.90
11221;DHT22;8517;53.546;10.104;2022-07-23T14:47:33;22.80;99.90
11221;DHT22;8517;53.546;10.104;2022-07-23T14:50:00;22.70;99.90
11221;DHT22;8517;53.546;10.104;2022-07-23T14:52:27;22.70;99.90
11221;DHT22;8517;53.546;10.104;2022-07-23T14:54:53;22.70;99.90
11221;DHT22;8517;53.546;10.104;2022-07-23T14:57:21;22.70;99.90
11221;DHT22;8517;53.546;10.104;2022-07-23T14:59:48;22.70;99.90
11221;DHT22;8517;53.546;10.104;2022-07-23T15:02:15;22.70;99.90
11221;DHT22;8517;53.546;10.104;2022-07-23T15:04:42;22.70;99.90
11221;DHT22;8517;53.546;10.104;2022-07-23T15:07:08;22.60;99.90
11221;DHT22;8517;53.546;10.104;2022-07-23T15:09:35;22.60;99.90
11221;DHT22;8517;53.546;10.104;2022-07-23T15:12:02;22.60;99.90
11221;DHT22;8517;53.546;10.104;2022-07-23T15:14:31;22.50;99.90
11221;DHT22;8517;53.546;10.104;2022-07-23T15:16:58;22.50;99.90
11221;DHT22;8517;53.546;10.104;2022-07-23T15:19:24;22.50;99.90
11221;DHT22;8517;53.546;10.104;2022-07-23T15:21:51;22.50;99.90
11221;DHT22;8517;53.546;10.104;2022-07-23T15:24:18;22.50;99.90
11221;DHT22;8517;53.546;10.104;2022-07-23T15:26:45;22.50;99.90
11221;DHT22;8517;53.546;10.104;2022-07-23T15:29:11;22.50;99.90
11221;DHT22;8517;53.546;10.104;2022-07-23T15:31:42;22.50;99.90
11221;DHT22;8517;53.546;10.104;2022-07-23T15:34:09;22.50;99.90
11221;DHT22;8517;53.546;10.104;2022-07-23T15:36:36;22.50;99.90
11221;DHT22;8517;53.546;10.104;2022-07-23T15:39:03;22.50;99.90
11221;DHT22;8517;53.546;10.104;2022-07-23T15:41:31;22.40;99.90
11221;DHT22;8517;53.546;10.104;2022-07-23T15:43:58;22.40;99.90
11221;DHT22;8517;53.546;10.104;2022-07-23T15:46:24;22.40;99.90
11221;DHT22;8517;53.546;10.104;2022-07-23T15:48:53;22.40;99.90